createdAt,value
2018-08-08T00:00:02.185Z,998.31
2018-08-08T00:01:02.212Z,998.3
2018-08-08T00:02:02.235Z,998.3
2018-08-08T00:03:02.273Z,998.3
2018-08-08T00:04:02.303Z,998.28
2018-08-08T00:05:02.316Z,998.3
2018-08-08T00:06:02.362Z,998.28
2018-08-08T00:07:02.389Z,998.3
2018-08-08T00:08:02.405Z,998.33
2018-08-08T00:09:02.434Z,998.29
2018-08-08T00:10:02.485Z,998.33
2018-08-08T00:11:02.499Z,998.32
2018-08-08T00:12:02.526Z,998.3
2018-08-08T00:13:02.555Z,998.31
2018-08-08T00:14:02.590Z,998.25
2018-08-08T00:15:02.616Z,998.21
2018-08-08T00:16:02.640Z,998.19
2018-08-08T00:17:02.683Z,998.17
2018-08-08T00:18:02.704Z,998.12
2018-08-08T00:19:02.742Z,998.1
2018-08-08T00:20:02.761Z,998.1
2018-08-08T00:21:02.790Z,998.09
2018-08-08T00:22:02.814Z,998.09
2018-08-08T00:23:02.843Z,998.06
2018-08-08T00:24:02.874Z,998.08
2018-08-08T00:25:02.911Z,998.07
2018-08-08T00:26:02.934Z,998.08
2018-08-08T00:27:02.962Z,998.08
2018-08-08T00:28:02.994Z,998.03
2018-08-08T00:29:03.031Z,998.05
2018-08-08T00:30:03.047Z,998.05
2018-08-08T00:31:03.075Z,998.01
2018-08-08T00:32:03.111Z,998.02
2018-08-08T00:33:03.138Z,998.01
2018-08-08T00:34:03.162Z,998.01
2018-08-08T00:35:03.203Z,998.01
2018-08-08T00:36:03.235Z,997.99
2018-08-08T00:37:03.248Z,997.95
2018-08-08T00:38:03.298Z,997.94
2018-08-08T00:39:03.321Z,997.94
2018-08-08T00:40:03.349Z,997.94
2018-08-08T00:41:03.374Z,997.97
2018-08-08T00:42:03.393Z,997.94
2018-08-08T00:43:03.434Z,997.98
2018-08-08T00:44:03.450Z,997.96
2018-08-08T00:45:03.480Z,997.99
2018-08-08T00:46:03.524Z,997.99
2018-08-08T00:47:03.551Z,997.99
2018-08-08T00:48:03.576Z,997.99
2018-08-08T00:49:03.612Z,998
2018-08-08T00:50:03.639Z,997.97
2018-08-08T00:51:03.657Z,997.99
2018-08-08T00:52:03.690Z,997.93
2018-08-08T00:53:03.724Z,997.92
2018-08-08T00:54:03.743Z,997.89
2018-08-08T00:55:03.771Z,997.88
2018-08-08T00:56:03.815Z,997.89
2018-08-08T00:57:03.830Z,997.91
2018-08-08T00:58:03.968Z,997.91
2018-08-08T00:59:03.883Z,997.92
2018-08-08T01:00:03.914Z,997.95
2018-08-08T01:01:03.940Z,997.96
2018-08-08T01:02:03.982Z,997.96
2018-08-08T01:03:04.007Z,997.98
2018-08-08T01:04:04.029Z,997.97
2018-08-08T01:05:04.058Z,997.95
2018-08-08T01:06:04.093Z,997.93
2018-08-08T01:07:04.123Z,997.93
2018-08-08T01:08:04.204Z,997.93
2018-08-08T01:09:04.323Z,997.88
2018-08-08T01:10:04.245Z,997.86
2018-08-08T01:11:04.223Z,997.83
2018-08-08T01:12:04.251Z,997.82
2018-08-08T01:13:04.291Z,997.81
2018-08-08T01:14:04.314Z,997.72
2018-08-08T01:15:04.356Z,997.71
2018-08-08T01:16:04.400Z,997.74
2018-08-08T01:17:04.405Z,997.72
2018-08-08T01:18:04.434Z,997.74
2018-08-08T01:19:04.460Z,997.72
2018-08-08T01:20:04.489Z,997.72
2018-08-08T01:21:04.519Z,997.73
2018-08-08T01:22:04.554Z,997.72
2018-08-08T01:23:04.574Z,997.74
2018-08-08T01:24:04.606Z,997.77
2018-08-08T01:25:04.635Z,997.75
2018-08-08T01:26:04.655Z,997.75
2018-08-08T01:27:04.690Z,997.73
2018-08-08T01:28:04.714Z,997.73
2018-08-08T01:29:04.745Z,997.74
2018-08-08T01:30:04.769Z,997.7
2018-08-08T01:31:04.796Z,997.73
2018-08-08T01:32:04.835Z,997.7
2018-08-08T01:33:04.865Z,997.7
2018-08-08T01:34:04.875Z,997.69
2018-08-08T01:35:04.917Z,997.71
2018-08-08T01:36:04.949Z,997.69
2018-08-08T01:37:05.001Z,997.71
2018-08-08T01:38:04.999Z,997.74
2018-08-08T01:39:05.033Z,997.71
2018-08-08T01:40:05.055Z,997.73
2018-08-08T01:41:05.091Z,997.75
2018-08-08T01:42:05.112Z,997.77
2018-08-08T01:43:05.140Z,997.78
2018-08-08T01:44:05.198Z,997.78
2018-08-08T01:45:05.196Z,997.78
2018-08-08T01:46:05.229Z,997.74
2018-08-08T01:47:05.259Z,997.79
2018-08-08T01:48:05.275Z,997.77
2018-08-08T01:49:05.313Z,997.81
2018-08-08T01:50:05.331Z,997.77
2018-08-08T01:51:05.360Z,997.78
2018-08-08T01:52:05.384Z,997.79
2018-08-08T01:53:05.421Z,997.83
2018-08-08T01:54:05.449Z,997.82
2018-08-08T01:55:05.483Z,997.87
2018-08-08T01:56:05.510Z,997.91
2018-08-08T01:57:05.539Z,997.94
2018-08-08T01:58:05.568Z,997.95
2018-08-08T01:59:05.590Z,997.96
2018-08-08T02:00:05.622Z,997.91
2018-08-08T02:01:05.642Z,997.96
2018-08-08T02:02:05.680Z,997.92
2018-08-08T02:03:05.690Z,997.92
2018-08-08T02:04:05.851Z,997.9
2018-08-08T02:05:05.762Z,997.88
2018-08-08T02:06:05.795Z,997.86
2018-08-08T02:07:05.819Z,997.92
2018-08-08T02:08:05.830Z,997.9
2018-08-08T02:09:05.860Z,997.91
2018-08-08T02:10:05.889Z,997.93
2018-08-08T02:11:05.929Z,997.92
2018-08-08T02:12:05.958Z,997.93
2018-08-08T02:13:06.044Z,997.94
2018-08-08T02:14:05.998Z,997.92
2018-08-08T02:15:06.025Z,997.92
2018-08-08T02:16:06.065Z,997.91
2018-08-08T02:17:06.098Z,997.93
2018-08-08T02:18:06.117Z,997.91
2018-08-08T02:19:06.143Z,997.92
2018-08-08T02:20:06.175Z,997.92
2018-08-08T02:21:06.193Z,997.91
2018-08-08T02:22:06.221Z,997.88
2018-08-08T02:23:06.265Z,997.87
2018-08-08T02:24:06.281Z,997.86
2018-08-08T02:25:06.303Z,997.89
2018-08-08T02:26:06.350Z,997.96
2018-08-08T02:27:06.371Z,997.94
2018-08-08T02:28:06.388Z,997.94
2018-08-08T02:29:06.429Z,997.91
2018-08-08T02:30:06.442Z,997.9
2018-08-08T02:31:06.470Z,997.87
2018-08-08T02:32:06.509Z,997.88
2018-08-08T02:33:06.562Z,997.93
2018-08-08T02:34:06.568Z,997.93
2018-08-08T02:35:06.592Z,997.99
2018-08-08T02:36:06.612Z,997.99
2018-08-08T02:37:06.720Z,998
2018-08-08T02:38:06.675Z,997.96
2018-08-08T02:39:06.706Z,997.91
2018-08-08T02:40:06.735Z,997.85
2018-08-08T02:41:06.746Z,997.86
2018-08-08T02:42:06.790Z,997.87
2018-08-08T02:43:06.808Z,997.88
2018-08-08T02:44:06.839Z,997.9
2018-08-08T02:45:06.866Z,997.89
2018-08-08T02:46:06.891Z,997.93
2018-08-08T02:47:06.919Z,997.92
2018-08-08T02:48:06.957Z,997.95
2018-08-08T02:49:06.970Z,997.91
2018-08-08T02:50:07.010Z,998
2018-08-08T02:51:07.019Z,998.03
2018-08-08T02:52:07.058Z,998.01
2018-08-08T02:53:07.077Z,998.02
2018-08-08T02:54:07.117Z,998.04
2018-08-08T02:55:07.142Z,998.03
2018-08-08T02:56:07.162Z,998.02
2018-08-08T02:57:07.201Z,998.02
2018-08-08T02:58:07.222Z,998.02
2018-08-08T02:59:07.251Z,998
2018-08-08T03:00:07.277Z,998.01
2018-08-08T03:01:07.296Z,997.95
2018-08-08T03:02:07.336Z,998.03
2018-08-08T03:03:07.364Z,998.03
2018-08-08T03:04:07.377Z,998.02
2018-08-08T03:05:07.404Z,998.04
2018-08-08T03:06:07.441Z,998.03
2018-08-08T03:07:07.459Z,997.95
2018-08-08T03:08:07.504Z,997.96
2018-08-08T03:09:07.518Z,997.93
2018-08-08T03:10:07.540Z,997.94
2018-08-08T03:11:07.567Z,997.95
2018-08-08T03:12:07.594Z,998
2018-08-08T03:13:07.625Z,998.01
2018-08-08T03:14:07.655Z,998
2018-08-08T03:15:07.676Z,997.97
2018-08-08T03:16:07.719Z,997.97
2018-08-08T03:17:07.736Z,997.98
2018-08-08T03:18:07.767Z,997.95
2018-08-08T03:19:07.785Z,997.99
2018-08-08T03:20:07.822Z,998.02
2018-08-08T03:21:07.850Z,998.06
2018-08-08T03:22:07.869Z,998.03
2018-08-08T03:23:07.909Z,998.04
2018-08-08T03:24:07.931Z,998.04
2018-08-08T03:25:07.952Z,998.01
2018-08-08T03:26:08.051Z,997.97
2018-08-08T03:27:08.016Z,997.93
2018-08-08T03:28:08.030Z,997.88
2018-08-08T03:29:08.063Z,997.87
2018-08-08T03:30:08.097Z,997.88
2018-08-08T03:31:08.121Z,997.85
2018-08-08T03:32:08.140Z,997.85
2018-08-08T03:33:08.181Z,997.85
2018-08-08T03:34:08.193Z,997.81
2018-08-08T03:35:08.219Z,997.77
2018-08-08T03:36:08.256Z,997.79
2018-08-08T03:37:08.289Z,997.76
2018-08-08T03:38:08.306Z,997.76
2018-08-08T03:39:08.339Z,997.78
2018-08-08T03:40:08.366Z,997.78
2018-08-08T03:41:08.382Z,997.81
2018-08-08T03:42:08.417Z,997.75
2018-08-08T03:43:08.440Z,997.77
2018-08-08T03:44:08.473Z,997.78
2018-08-08T03:45:08.494Z,997.79
2018-08-08T03:46:08.521Z,997.84
2018-08-08T03:47:08.560Z,997.81
2018-08-08T03:48:08.576Z,997.83
2018-08-08T03:49:08.611Z,997.83
2018-08-08T03:50:08.634Z,997.84
2018-08-08T03:51:08.650Z,997.85
2018-08-08T03:52:08.683Z,997.82
2018-08-08T03:53:08.739Z,997.85
2018-08-08T03:54:08.746Z,997.84
2018-08-08T03:55:08.869Z,997.87
2018-08-08T03:56:08.789Z,997.86
2018-08-08T03:57:08.817Z,997.9
2018-08-08T03:58:08.855Z,997.92
2018-08-08T03:59:08.875Z,997.93
2018-08-08T04:00:08.907Z,997.94
2018-08-08T04:01:08.924Z,997.94
2018-08-08T04:02:08.960Z,997.97
2018-08-08T04:03:08.977Z,997.97
2018-08-08T04:04:09.014Z,997.98
2018-08-08T04:05:09.036Z,998
2018-08-08T04:06:09.063Z,998.03
2018-08-08T04:07:09.087Z,998.05
2018-08-08T04:08:09.111Z,998.14
2018-08-08T04:09:09.156Z,998.17
2018-08-08T04:10:09.165Z,998.21
2018-08-08T04:11:09.191Z,998.25
2018-08-08T04:12:09.217Z,998.27
2018-08-08T04:13:09.251Z,998.28
2018-08-08T04:14:09.266Z,998.32
2018-08-08T04:15:09.297Z,998.35
2018-08-08T04:16:09.319Z,998.35
2018-08-08T04:17:09.365Z,998.35
2018-08-08T04:18:09.386Z,998.39
2018-08-08T04:19:09.405Z,998.38
2018-08-08T04:20:09.444Z,998.41
2018-08-08T04:21:09.458Z,998.39
2018-08-08T04:22:09.478Z,998.35
2018-08-08T04:23:09.513Z,998.34
2018-08-08T04:24:09.608Z,998.34
2018-08-08T04:25:09.569Z,998.31
2018-08-08T04:26:09.590Z,998.33
2018-08-08T04:27:09.613Z,998.31
2018-08-08T04:28:09.650Z,998.27
2018-08-08T04:29:09.666Z,998.33
2018-08-08T04:30:09.701Z,998.33
2018-08-08T04:31:09.785Z,998.34
2018-08-08T04:32:09.762Z,998.3
2018-08-08T04:33:09.788Z,998.26
2018-08-08T04:34:09.804Z,998.29
2018-08-08T04:35:09.834Z,998.3
2018-08-08T04:36:09.859Z,998.32
2018-08-08T04:37:09.887Z,998.32
2018-08-08T04:38:09.911Z,998.34
2018-08-08T04:39:09.941Z,998.33
2018-08-08T04:40:09.964Z,998.34
2018-08-08T04:41:09.991Z,998.36
2018-08-08T04:42:10.013Z,998.39
2018-08-08T04:43:10.045Z,998.39
2018-08-08T04:44:10.065Z,998.37
2018-08-08T04:45:10.095Z,998.37
2018-08-08T04:46:10.132Z,998.36
2018-08-08T04:47:10.148Z,998.37
2018-08-08T04:48:10.184Z,998.34
2018-08-08T04:49:10.214Z,998.27
2018-08-08T04:50:10.229Z,998.27
2018-08-08T04:51:10.264Z,998.25
2018-08-08T04:52:10.294Z,998.2
2018-08-08T04:53:10.311Z,998.18
2018-08-08T04:54:10.338Z,998.17
2018-08-08T04:55:10.355Z,998.2
2018-08-08T04:56:10.397Z,998.18
2018-08-08T04:57:10.407Z,998.26
2018-08-08T04:58:10.439Z,998.26
2018-08-08T04:59:10.461Z,998.25
2018-08-08T05:00:10.518Z,998.28
2018-08-08T05:01:10.523Z,998.28
2018-08-08T05:02:10.565Z,998.33
2018-08-08T05:03:10.571Z,998.29
2018-08-08T05:04:10.592Z,998.32
2018-08-08T05:05:10.629Z,998.33
2018-08-08T05:06:10.649Z,998.35
2018-08-08T05:07:10.687Z,998.36
2018-08-08T05:08:10.703Z,998.39
2018-08-08T05:09:10.740Z,998.36
2018-08-08T05:10:10.750Z,998.36
2018-08-08T05:11:10.783Z,998.36
2018-08-08T05:12:10.827Z,998.36
2018-08-08T05:13:10.834Z,998.35
2018-08-08T05:14:10.871Z,998.36
2018-08-08T05:15:10.898Z,998.41
2018-08-08T05:16:10.921Z,998.41
2018-08-08T05:17:10.940Z,998.42
2018-08-08T05:18:10.966Z,998.43
2018-08-08T05:19:10.992Z,998.44
2018-08-08T05:20:11.050Z,998.5
2018-08-08T05:21:11.056Z,998.5
2018-08-08T05:22:11.066Z,998.5
2018-08-08T05:23:11.092Z,998.5
2018-08-08T05:24:11.128Z,998.53
2018-08-08T05:25:11.160Z,998.5
2018-08-08T05:26:11.186Z,998.54
2018-08-08T05:27:11.207Z,998.54
2018-08-08T05:28:11.225Z,998.58
2018-08-08T05:29:11.265Z,998.58
2018-08-08T05:30:11.293Z,998.58
2018-08-08T05:31:11.320Z,998.61
2018-08-08T05:32:11.338Z,998.61
2018-08-08T05:33:11.361Z,998.61
2018-08-08T05:34:11.381Z,998.62
2018-08-08T05:35:11.416Z,998.62
2018-08-08T05:36:11.453Z,998.64
2018-08-08T05:37:11.476Z,998.63
2018-08-08T05:38:11.494Z,998.65
2018-08-08T05:39:11.523Z,998.64
2018-08-08T05:40:11.550Z,998.65
2018-08-08T05:41:11.589Z,998.67
2018-08-08T05:42:11.603Z,998.7
2018-08-08T05:43:11.628Z,998.69
2018-08-08T05:44:11.659Z,998.68
2018-08-08T05:45:11.672Z,998.73
2018-08-08T05:46:11.812Z,998.69
2018-08-08T05:47:11.732Z,998.72
2018-08-08T05:48:11.765Z,998.73
2018-08-08T05:49:11.868Z,998.71
2018-08-08T05:50:11.821Z,998.73
2018-08-08T05:51:11.841Z,998.73
2018-08-08T05:52:11.856Z,998.72
2018-08-08T05:53:11.895Z,998.77
2018-08-08T05:54:11.906Z,998.73
2018-08-08T05:55:11.948Z,998.73
2018-08-08T05:56:11.959Z,998.71
2018-08-08T05:57:11.991Z,998.75
2018-08-08T05:58:12.012Z,998.72
2018-08-08T05:59:12.046Z,998.7
2018-08-08T06:00:12.068Z,998.74
2018-08-08T06:01:12.107Z,998.7
2018-08-08T06:02:12.136Z,998.72
2018-08-08T06:03:12.142Z,998.72
2018-08-08T06:04:12.174Z,998.71
2018-08-08T06:05:12.194Z,998.75
2018-08-08T06:06:12.220Z,998.7
2018-08-08T06:07:12.256Z,998.7
2018-08-08T06:08:12.314Z,998.68
2018-08-08T06:09:12.311Z,998.7
2018-08-08T06:10:12.342Z,998.69
2018-08-08T06:11:12.353Z,998.69
2018-08-08T06:12:12.384Z,998.67
2018-08-08T06:13:12.414Z,998.67
2018-08-08T06:14:12.436Z,998.61
2018-08-08T06:15:12.475Z,998.66
2018-08-08T06:16:12.494Z,998.65
2018-08-08T06:17:12.515Z,998.62
2018-08-08T06:18:12.536Z,998.7
2018-08-08T06:19:12.571Z,998.68
2018-08-08T06:20:12.604Z,998.68
2018-08-08T06:21:12.627Z,998.7
2018-08-08T06:22:12.651Z,998.7
2018-08-08T06:23:12.682Z,998.7
2018-08-08T06:24:12.704Z,998.68
2018-08-08T06:25:12.727Z,998.68
2018-08-08T06:26:12.764Z,998.69
2018-08-08T06:27:12.773Z,998.71
2018-08-08T06:28:12.805Z,998.7
2018-08-08T06:29:12.842Z,998.75
2018-08-08T06:30:12.863Z,998.74
2018-08-08T06:31:12.882Z,998.73
2018-08-08T06:32:12.904Z,998.71
2018-08-08T06:33:12.958Z,998.72
2018-08-08T06:34:12.957Z,998.75
2018-08-08T06:35:12.993Z,998.76
2018-08-08T06:36:13.027Z,998.74
2018-08-08T06:37:13.048Z,998.79
2018-08-08T06:38:13.074Z,998.75
2018-08-08T06:39:13.092Z,998.76
2018-08-08T06:40:13.137Z,998.76
2018-08-08T06:41:13.159Z,998.79
2018-08-08T06:42:13.181Z,998.83
2018-08-08T06:43:13.197Z,998.8
2018-08-08T06:44:13.302Z,998.82
2018-08-08T06:45:13.264Z,998.78
2018-08-08T06:46:13.289Z,998.82
2018-08-08T06:47:13.318Z,998.8
2018-08-08T06:48:13.332Z,998.81
2018-08-08T06:49:13.378Z,998.87
2018-08-08T06:50:13.399Z,998.81
2018-08-08T06:51:13.416Z,998.83
2018-08-08T06:52:13.444Z,998.84
2018-08-08T06:53:13.476Z,998.83
2018-08-08T06:54:13.503Z,998.78
2018-08-08T06:55:13.598Z,998.8
2018-08-08T06:56:13.553Z,998.8
2018-08-08T06:57:13.578Z,998.81
2018-08-08T06:58:13.611Z,998.83
2018-08-08T06:59:13.627Z,998.87
2018-08-08T07:00:13.700Z,998.85
2018-08-08T07:01:13.676Z,998.86
2018-08-08T07:02:13.716Z,998.83
2018-08-08T07:03:13.728Z,998.84
2018-08-08T07:04:13.754Z,998.84
2018-08-08T07:05:13.786Z,998.82
2018-08-08T07:06:13.813Z,998.79
2018-08-08T07:07:13.850Z,998.77
2018-08-08T07:08:13.871Z,998.74
2018-08-08T07:09:13.904Z,998.82
2018-08-08T07:10:13.930Z,998.84
2018-08-08T07:11:13.956Z,998.75
2018-08-08T07:12:13.968Z,998.78
2018-08-08T07:13:14.011Z,998.72
2018-08-08T07:14:14.034Z,998.75
2018-08-08T07:15:14.049Z,998.76
2018-08-08T07:16:14.085Z,998.77
2018-08-08T07:17:14.102Z,998.73
2018-08-08T07:18:14.134Z,998.76
2018-08-08T07:19:14.156Z,998.73
2018-08-08T07:20:14.183Z,998.76
2018-08-08T07:21:14.214Z,998.78
2018-08-08T07:22:14.254Z,998.76
2018-08-08T07:23:14.269Z,998.76
2018-08-08T07:24:14.297Z,998.74
2018-08-08T07:25:14.342Z,998.71
2018-08-08T07:26:14.346Z,998.73
2018-08-08T07:27:14.384Z,998.75
2018-08-08T07:28:14.405Z,998.74
2018-08-08T07:29:14.425Z,998.75
2018-08-08T07:30:14.468Z,998.75
2018-08-08T07:31:14.501Z,998.77
2018-08-08T07:32:14.545Z,998.81
2018-08-08T07:33:14.540Z,998.84
2018-08-08T07:34:14.566Z,998.84
2018-08-08T07:35:14.594Z,998.84
2018-08-08T07:36:14.615Z,998.89
2018-08-08T07:37:14.643Z,998.92
2018-08-08T07:38:14.670Z,998.93
2018-08-08T07:39:14.700Z,998.96
2018-08-08T07:40:14.725Z,999.07
2018-08-08T07:41:14.775Z,999.03
2018-08-08T07:42:14.785Z,999.1
2018-08-08T07:43:14.818Z,999.05
2018-08-08T07:44:14.832Z,999.07
2018-08-08T07:45:14.866Z,999.09
2018-08-08T07:46:14.915Z,999.11
2018-08-08T07:47:14.925Z,998.99
2018-08-08T07:48:14.949Z,999
2018-08-08T07:49:14.987Z,998.95
2018-08-08T07:50:14.998Z,998.88
2018-08-08T07:51:15.026Z,998.91
2018-08-08T07:52:15.069Z,998.88
2018-08-08T07:53:15.092Z,998.98
2018-08-08T07:54:15.107Z,998.96
2018-08-08T07:55:15.146Z,999.01
2018-08-08T07:56:15.180Z,999.02
2018-08-08T07:57:15.200Z,999.03
2018-08-08T07:58:15.497Z,999.05
2018-08-08T07:59:15.252Z,999.03
2018-08-08T08:00:15.286Z,999.04
2018-08-08T08:01:15.329Z,999.1
2018-08-08T08:02:15.341Z,999.08
2018-08-08T08:03:15.374Z,999.07
2018-08-08T08:04:15.403Z,999.1
2018-08-08T08:05:15.429Z,999.09
2018-08-08T08:06:15.453Z,999.14
2018-08-08T08:07:15.488Z,999.15
2018-08-08T08:08:15.510Z,999.26
2018-08-08T08:09:15.532Z,999.29
2018-08-08T08:10:15.559Z,999.3
2018-08-08T08:11:15.586Z,999.3
2018-08-08T08:12:15.622Z,999.35
2018-08-08T08:13:15.655Z,999.29
2018-08-08T08:14:15.788Z,999.3
2018-08-08T08:15:15.786Z,999.36
2018-08-08T08:16:15.727Z,999.23
2018-08-08T08:17:15.848Z,999.22
2018-08-08T08:18:15.785Z,999.32
2018-08-08T08:19:15.822Z,999.26
2018-08-08T08:20:15.837Z,999.24
2018-08-08T08:21:15.876Z,999.28
2018-08-08T08:22:15.908Z,999.27
2018-08-08T08:23:16.069Z,999.29
2018-08-08T08:24:15.962Z,999.33
2018-08-08T08:25:15.981Z,999.33
2018-08-08T08:26:16.018Z,999.27
2018-08-08T08:27:16.042Z,999.4
2018-08-08T08:28:16.068Z,999.35
2018-08-08T08:29:16.093Z,999.33
2018-08-08T08:30:16.187Z,999.35
2018-08-08T08:31:16.162Z,999.4
2018-08-08T08:32:16.179Z,999.26
2018-08-08T08:33:16.211Z,999.29
2018-08-08T08:34:16.248Z,999.27
2018-08-08T08:35:16.289Z,999.3
2018-08-08T08:36:16.307Z,999.29
2018-08-08T08:37:16.323Z,999.38
2018-08-08T08:38:16.354Z,999.33
2018-08-08T08:39:16.379Z,999.34
2018-08-08T08:40:16.409Z,999.41
2018-08-08T08:41:16.445Z,999.36
2018-08-08T08:42:16.471Z,999.44
2018-08-08T08:43:16.497Z,999.53
2018-08-08T08:44:16.529Z,999.51
2018-08-08T08:45:16.554Z,999.49
2018-08-08T08:46:16.592Z,999.49
2018-08-08T08:47:16.614Z,999.49
2018-08-08T08:48:16.656Z,999.49
2018-08-08T08:49:16.674Z,999.5
2018-08-08T08:50:16.779Z,999.47
2018-08-08T08:51:16.729Z,999.42
2018-08-08T08:52:16.769Z,999.3
2018-08-08T08:53:16.797Z,999.36
2018-08-08T08:54:16.821Z,999.36
2018-08-08T08:55:16.860Z,999.32
2018-08-08T08:56:16.887Z,999.42
2018-08-08T08:57:16.902Z,999.42
2018-08-08T08:58:16.947Z,999.51
2018-08-08T08:59:16.963Z,999.45
2018-08-08T09:00:17.000Z,999.46
2018-08-08T09:01:17.032Z,999.49
2018-08-08T09:02:17.057Z,999.49
2018-08-08T09:03:17.085Z,999.5
2018-08-08T09:04:17.111Z,999.45
2018-08-08T09:05:17.154Z,999.46
2018-08-08T09:06:17.177Z,999.51
2018-08-08T09:07:17.249Z,999.42
2018-08-08T09:08:17.239Z,999.46
2018-08-08T09:09:17.260Z,999.44
2018-08-08T09:10:17.294Z,999.46
2018-08-08T09:11:17.330Z,999.45
2018-08-08T09:12:17.417Z,999.41
2018-08-08T09:13:17.406Z,999.48
2018-08-08T09:14:17.404Z,999.42
2018-08-08T09:15:17.434Z,999.47
2018-08-08T09:16:17.464Z,999.42
2018-08-08T09:17:17.503Z,999.37
2018-08-08T09:18:17.534Z,999.39
2018-08-08T09:19:17.566Z,999.4
2018-08-08T09:20:17.584Z,999.4
2018-08-08T09:21:17.628Z,999.44
2018-08-08T09:22:17.654Z,999.46
2018-08-08T09:23:17.676Z,999.46
2018-08-08T09:24:17.816Z,999.5
2018-08-08T09:25:17.737Z,999.51
2018-08-08T09:26:17.768Z,999.52
2018-08-08T09:27:17.803Z,999.43
2018-08-08T09:28:17.839Z,999.47
2018-08-08T09:29:17.869Z,999.4
2018-08-08T09:30:17.922Z,999.42
2018-08-08T09:31:17.931Z,999.41
2018-08-08T09:32:18.044Z,999.41
2018-08-08T09:33:17.979Z,999.36
2018-08-08T09:34:18.005Z,999.39
2018-08-08T09:35:18.043Z,999.43
2018-08-08T09:36:18.083Z,999.51
2018-08-08T09:37:18.106Z,999.53
2018-08-08T09:38:18.143Z,999.52
2018-08-08T09:39:18.185Z,999.52
2018-08-08T09:40:18.232Z,999.45
2018-08-08T09:41:18.233Z,999.43
2018-08-08T09:42:18.249Z,999.4
2018-08-08T09:43:18.285Z,999.39
2018-08-08T09:44:18.384Z,999.35
2018-08-08T09:45:18.346Z,999.37
2018-08-08T09:46:18.417Z,999.35
2018-08-08T09:47:18.404Z,999.3
2018-08-08T09:48:18.443Z,999.3
2018-08-08T09:49:18.470Z,999.32
2018-08-08T09:50:18.514Z,999.29
2018-08-08T09:51:18.527Z,999.25
2018-08-08T09:52:18.563Z,999.3
2018-08-08T09:53:18.599Z,999.3
2018-08-08T09:54:18.636Z,999.27
2018-08-08T09:55:18.660Z,999.24
2018-08-08T09:56:18.718Z,999.27
2018-08-08T09:57:18.712Z,999.29
2018-08-08T09:58:18.757Z,999.26
2018-08-08T09:59:18.779Z,999.22
2018-08-08T10:00:18.808Z,999.2
2018-08-08T10:01:18.844Z,999.21
2018-08-08T10:02:18.881Z,999.25
2018-08-08T10:03:18.916Z,999.21
2018-08-08T10:04:18.939Z,999.27
2018-08-08T10:05:18.981Z,999.25
2018-08-08T10:06:19.005Z,999.23
2018-08-08T10:07:19.036Z,999.31
2018-08-08T10:08:19.062Z,999.28
2018-08-08T10:09:19.095Z,999.27
2018-08-08T10:10:19.120Z,999.28
2018-08-08T10:11:19.169Z,999.34
2018-08-08T10:12:19.271Z,999.3
2018-08-08T10:13:19.334Z,999.24
2018-08-08T10:14:19.248Z,999.27
2018-08-08T10:15:19.280Z,999.29
2018-08-08T10:16:19.327Z,999.3
2018-08-08T10:17:19.355Z,999.28
2018-08-08T10:18:19.386Z,999.34
2018-08-08T10:19:19.416Z,999.35
2018-08-08T10:20:19.442Z,999.29
2018-08-08T10:21:19.480Z,999.29
2018-08-08T10:22:19.508Z,999.25
2018-08-08T10:23:19.551Z,999.26
2018-08-08T10:24:19.571Z,999.27
2018-08-08T10:25:19.611Z,999.31
2018-08-08T10:26:19.641Z,999.26
2018-08-08T10:27:19.675Z,999.27
2018-08-08T10:28:19.705Z,999.3
2018-08-08T10:29:19.728Z,999.27
2018-08-08T10:30:19.772Z,999.27
2018-08-08T10:31:19.797Z,999.21
2018-08-08T10:32:19.842Z,999.2
2018-08-08T10:33:19.872Z,999.18
2018-08-08T10:34:19.904Z,999.12
2018-08-08T10:35:19.922Z,999.12
2018-08-08T10:36:19.966Z,999.1
2018-08-08T10:37:19.998Z,999.14
2018-08-08T10:38:20.041Z,999.15
2018-08-08T10:39:20.053Z,999.17
2018-08-08T10:40:20.088Z,999.15
2018-08-08T10:41:20.134Z,999.12
2018-08-08T10:42:20.167Z,999.21
2018-08-08T10:43:20.199Z,999.14
2018-08-08T10:44:20.227Z,999.17
2018-08-08T10:45:20.255Z,999.14
2018-08-08T10:46:20.289Z,999.13
2018-08-08T10:47:20.318Z,999.13
2018-08-08T10:48:20.354Z,999.21
2018-08-08T10:49:20.392Z,999.14
2018-08-08T10:50:20.417Z,999.13
2018-08-08T10:51:20.447Z,999.16
2018-08-08T10:52:20.497Z,999.14
2018-08-08T10:53:20.514Z,999.13
2018-08-08T10:54:20.557Z,999.16
2018-08-08T10:55:20.591Z,999.17
2018-08-08T10:56:20.724Z,999.15
2018-08-08T10:57:20.651Z,999.17
2018-08-08T10:58:20.687Z,999.15
2018-08-08T10:59:20.726Z,999.16
2018-08-08T11:00:20.750Z,999.13
2018-08-08T11:01:20.797Z,999.1
2018-08-08T11:02:20.832Z,999.14
2018-08-08T11:03:20.854Z,999.17
2018-08-08T11:04:20.903Z,999.13
2018-08-08T11:05:20.922Z,999.14
2018-08-08T11:06:20.965Z,999.11
2018-08-08T11:07:20.983Z,999.12
2018-08-08T11:08:21.032Z,999.13
2018-08-08T11:09:21.061Z,999.12
2018-08-08T11:10:21.085Z,999.07
2018-08-08T11:11:21.126Z,999.08
2018-08-08T11:12:21.156Z,999.12
2018-08-08T11:13:21.186Z,999.01
2018-08-08T11:14:21.220Z,998.99
2018-08-08T11:15:21.271Z,999.01
2018-08-08T11:16:21.298Z,998.98
2018-08-08T11:17:21.332Z,999.03
2018-08-08T11:18:21.364Z,999.03
2018-08-08T11:19:21.391Z,999.08
2018-08-08T11:20:21.434Z,999
2018-08-08T11:21:21.473Z,999.06
2018-08-08T11:22:21.503Z,999.07
2018-08-08T11:23:21.544Z,999.04
2018-08-08T11:24:21.579Z,999.03
2018-08-08T11:25:21.612Z,999.08
2018-08-08T11:26:21.643Z,999.05
2018-08-08T11:27:21.670Z,999.07
2018-08-08T11:28:21.719Z,999.07
2018-08-08T11:29:21.741Z,999.02
2018-08-08T11:30:21.798Z,999.08
2018-08-08T11:31:21.804Z,999.03
2018-08-08T11:32:21.846Z,999.02
2018-08-08T11:33:21.883Z,999
2018-08-08T11:34:21.920Z,999.02
2018-08-08T11:35:21.944Z,998.98
2018-08-08T11:36:21.986Z,998.96
2018-08-08T11:37:22.029Z,998.97
2018-08-08T11:38:22.050Z,998.99
2018-08-08T11:39:22.088Z,998.97
2018-08-08T11:40:22.118Z,998.98
2018-08-08T11:41:22.155Z,998.91
2018-08-08T11:42:22.197Z,998.95
2018-08-08T11:43:22.224Z,998.94
2018-08-08T11:44:22.260Z,998.91
2018-08-08T11:45:22.292Z,998.95
2018-08-08T11:46:22.370Z,998.94
2018-08-08T11:47:22.378Z,998.91
2018-08-08T11:48:22.412Z,998.89
2018-08-08T11:49:22.432Z,998.93
2018-08-08T11:50:22.477Z,998.97
2018-08-08T11:51:22.509Z,998.91
2018-08-08T11:52:22.543Z,998.91
2018-08-08T11:53:22.628Z,998.93
2018-08-08T11:54:22.619Z,998.89
2018-08-08T11:55:22.661Z,998.91
2018-08-08T11:56:22.684Z,998.92
2018-08-08T11:57:22.730Z,998.92
2018-08-08T11:58:22.767Z,998.9
2018-08-08T11:59:22.796Z,998.96
2018-08-08T12:00:22.822Z,998.99
2018-08-08T12:01:22.862Z,998.97
2018-08-08T12:02:22.908Z,999
2018-08-08T12:03:22.941Z,999.03
2018-08-08T12:04:23.083Z,998.99
2018-08-08T12:05:23.012Z,999.01
2018-08-08T12:06:23.051Z,999.03
2018-08-08T12:07:23.086Z,999.05
2018-08-08T12:08:23.124Z,999.03
2018-08-08T12:09:23.154Z,999.07
2018-08-08T12:10:23.189Z,999.07
2018-08-08T12:11:23.227Z,999.05
2018-08-08T12:12:23.262Z,999.08
2018-08-08T12:13:23.293Z,999.05
2018-08-08T12:14:23.329Z,999.09
2018-08-08T12:15:23.375Z,999.06
2018-08-08T12:16:23.404Z,999.06
2018-08-08T12:17:23.436Z,999.05
2018-08-08T12:18:23.482Z,999.01
2018-08-08T12:19:23.505Z,999.03
2018-08-08T12:20:23.560Z,999.07
2018-08-08T12:21:23.575Z,999.1
2018-08-08T12:22:23.626Z,999.1
2018-08-08T12:23:23.658Z,999.09
2018-08-08T12:24:23.702Z,999.16
2018-08-08T12:25:23.745Z,999.11
2018-08-08T12:26:23.771Z,999.13
2018-08-08T12:27:23.809Z,999.11
2018-08-08T12:28:23.841Z,999.13
2018-08-08T12:29:23.865Z,999.15
2018-08-08T12:30:23.902Z,999.16
2018-08-08T12:31:23.981Z,999.17